createdAt,value
2022-08-08T00:00:50.689Z,99.90
2022-08-08T00:02:42.913Z,99.90
2022-08-08T00:05:44.256Z,99.90
2022-08-08T00:09:04.422Z,99.90
2022-08-08T00:11:47.109Z,99.90
2022-08-08T00:14:59.908Z,99.90
2022-08-08T00:18:14.501Z,99.90
2022-08-08T00:20:52.380Z,99.90
2022-08-08T00:23:47.625Z,99.90
2022-08-08T00:26:29.370Z,99.90
2022-08-08T00:29:45.152Z,99.90
2022-08-08T00:32:47.778Z,99.90
2022-08-08T00:35:48.933Z,99.90
2022-08-08T00:38:54.615Z,99.90
2022-08-08T00:42:08.812Z,99.90
2022-08-08T00:45:32.153Z,99.90
2022-08-08T00:48:35.273Z,99.90
2022-08-08T00:51:38.916Z,99.90
2022-08-08T00:54:58.541Z,99.90
2022-08-08T00:58:13.569Z,99.90
2022-08-08T01:01:19.681Z,99.90
2022-08-08T01:04:35.457Z,99.90
2022-08-08T01:10:50.782Z,99.90
2022-08-08T01:13:58.407Z,99.90
2022-08-08T02:25:46.887Z,99.90
2022-08-08T02:28:51.614Z,99.90
2022-08-08T02:32:05.476Z,99.90
2022-08-08T02:35:23.120Z,99.90
2022-08-08T02:42:04.026Z,99.90
2022-08-08T02:45:24.722Z,99.90
2022-08-08T02:48:25.828Z,99.90
2022-08-08T02:51:29.877Z,99.90
2022-08-08T02:54:56.752Z,99.90
2022-08-08T02:58:03.403Z,99.90
2022-08-08T03:01:05.372Z,99.90
2022-08-08T03:05:04.227Z,99.90
2022-08-08T03:08:15.633Z,99.90
2022-08-08T03:11:48.131Z,99.90
2022-08-08T03:16:02.364Z,99.90
2022-08-08T03:18:04.810Z,99.90
2022-08-08T03:20:51.596Z,99.90
2022-08-08T03:23:30.274Z,99.90
2022-08-08T03:26:07.496Z,99.90
2022-08-08T03:28:46.106Z,99.90
2022-08-08T03:32:06.579Z,99.90
2022-08-08T03:34:29.644Z,99.90
2022-08-08T03:36:57.229Z,99.90
2022-08-08T03:39:24.774Z,99.90
2022-08-08T03:42:13.125Z,99.90
2022-08-08T03:44:47.765Z,99.90
2022-08-08T03:47:22.247Z,99.90
2022-08-08T03:50:01.149Z,99.90
2022-08-08T03:52:45.043Z,99.90
2022-08-08T03:55:20.342Z,99.90
2022-08-08T03:58:34.371Z,99.90
2022-08-08T04:01:23.571Z,99.90
2022-08-08T04:03:59.210Z,99.90
2022-08-08T04:06:31.695Z,99.90
2022-08-08T04:09:08.796Z,99.90
2022-08-08T04:11:57.701Z,99.90
2022-08-08T04:14:36.457Z,99.90
2022-08-08T04:17:15.619Z,99.90
2022-08-08T04:19:56.302Z,99.90
2022-08-08T04:22:29.610Z,99.90
2022-08-08T04:24:58.507Z,99.90
2022-08-08T04:28:02.723Z,99.90
2022-08-08T04:30:18.145Z,99.90
2022-08-08T04:32:50.399Z,99.90
2022-08-08T04:35:22.814Z,99.90
2022-08-08T04:37:55.043Z,99.90
2022-08-08T04:40:30.957Z,99.90
2022-08-08T04:43:01.491Z,99.90
2022-08-08T04:45:50.892Z,99.90
2022-08-08T04:48:22.084Z,99.90
2022-08-08T04:50:50.466Z,99.90
2022-08-08T04:54:26.916Z,99.90
2022-08-08T04:56:13.916Z,99.90
2022-08-08T04:58:41.038Z,99.90
2022-08-08T05:01:11.004Z,99.90
2022-08-08T05:04:10.001Z,99.90
2022-08-08T05:06:40.058Z,99.90
2022-08-08T05:09:08.676Z,99.90
2022-08-08T05:11:40.665Z,99.90
2022-08-08T05:14:12.891Z,99.90
2022-08-08T05:16:53.442Z,99.90
2022-08-08T05:20:08.875Z,99.90
2022-08-08T05:22:17.577Z,99.90
2022-08-08T05:24:48.748Z,99.90
2022-08-08T05:27:19.106Z,99.90
2022-08-08T05:29:50.473Z,99.90
2022-08-08T05:32:24.570Z,99.90
2022-08-08T05:34:53.694Z,99.90
2022-08-08T05:37:49.279Z,99.90
2022-08-08T05:40:17.235Z,99.90
2022-08-08T05:42:51.423Z,99.90
2022-08-08T05:45:30.809Z,99.90
2022-08-08T05:48:08.543Z,99.90
2022-08-08T05:50:38.523Z,99.90
2022-08-08T05:53:54.576Z,99.90
2022-08-08T05:56:10.376Z,99.90
2022-08-08T05:58:57.169Z,99.90
2022-08-08T06:01:52.720Z,99.90
2022-08-08T06:04:23.268Z,99.90
2022-08-08T06:06:56.659Z,99.90
2022-08-08T06:10:00.666Z,99.90
2022-08-08T06:12:29.926Z,99.90
2022-08-08T06:15:06.358Z,99.90
2022-08-08T06:17:50.963Z,99.90
2022-08-08T06:20:26.622Z,99.90
2022-08-08T06:22:56.157Z,99.90
2022-08-08T06:26:34.993Z,99.90
2022-08-08T06:28:29.252Z,99.90
2022-08-08T06:31:00.102Z,99.90
2022-08-08T06:34:27.461Z,99.90
2022-08-08T06:36:53.503Z,99.90
2022-08-08T06:39:22.515Z,99.90
2022-08-08T06:41:58.951Z,99.90
2022-08-08T06:44:42.506Z,99.90
2022-08-08T06:47:10.797Z,99.90
2022-08-08T06:49:56.542Z,99.90
2022-08-08T06:52:27.690Z,99.90
2022-08-08T06:54:58.726Z,97.90
2022-08-08T06:57:29.378Z,98.10
2022-08-08T07:00:12.774Z,98.10
2022-08-08T07:02:46.129Z,95.30
2022-08-08T07:05:20.648Z,94.80
2022-08-08T07:08:17.950Z,95.10
2022-08-08T07:10:56.821Z,94.00
2022-08-08T07:13:38.536Z,93.00
2022-08-08T07:16:51.160Z,91.40
2022-08-08T07:19:59.893Z,90.80
2022-08-08T07:23:02.258Z,86.60
2022-08-08T07:25:39.027Z,86.40
2022-08-08T07:28:18.745Z,81.60
2022-08-08T07:30:49.179Z,80.80
2022-08-08T07:33:17.636Z,77.10
2022-08-08T07:35:48.489Z,74.40
2022-08-08T07:38:20.872Z,69.50
2022-08-08T07:41:04.500Z,64.90
2022-08-08T07:43:36.910Z,63.20
2022-08-08T07:46:23.943Z,60.70
2022-08-08T07:48:57.420Z,59.10
2022-08-08T07:51:45.058Z,57.60
2022-08-08T07:54:50.622Z,56.30
2022-08-08T07:58:03.634Z,55.30
2022-08-08T08:00:57.345Z,54.20
2022-08-08T08:03:53.590Z,54.10
2022-08-08T08:06:27.650Z,53.70
2022-08-08T08:09:09.055Z,53.00
2022-08-08T08:11:51.435Z,52.60
2022-08-08T08:14:44.699Z,51.60
2022-08-08T08:17:18.176Z,50.60
2022-08-08T08:19:50.494Z,49.60
2022-08-08T08:22:31.326Z,49.50
2022-08-08T08:25:07.668Z,49.30
2022-08-08T08:27:36.914Z,48.70
2022-08-08T08:30:05.899Z,48.50
2022-08-08T08:32:41.052Z,49.00
2022-08-08T08:35:29.337Z,47.70
2022-08-08T08:38:17.723Z,48.30
2022-08-08T08:40:48.673Z,46.40
2022-08-08T08:43:20.543Z,47.40
2022-08-08T08:45:58.324Z,47.90
2022-08-08T08:48:33.840Z,45.90
2022-08-08T08:51:03.382Z,47.00
2022-08-08T08:53:56.473Z,44.80
2022-08-08T08:56:31.939Z,45.10
2022-08-08T08:59:06.314Z,44.50
2022-08-08T09:01:43.848Z,44.40
2022-08-08T09:04:31.746Z,42.70
2022-08-08T09:07:14.753Z,43.80
2022-08-08T09:09:55.107Z,43.60
2022-08-08T09:12:31.566Z,43.20
2022-08-08T09:15:00.783Z,42.40
2022-08-08T09:17:41.742Z,41.40
2022-08-08T09:22:01.641Z,42.20
2022-08-08T09:23:11.195Z,41.70
2022-08-08T09:25:54.641Z,40.50
2022-08-08T09:28:37.483Z,39.10
2022-08-08T09:31:26.018Z,39.60
2022-08-08T09:34:31.196Z,39.60
2022-08-08T09:37:29.240Z,39.30
2022-08-08T09:40:03.863Z,38.30
2022-08-08T09:42:51.590Z,38.20
2022-08-08T09:45:55.408Z,37.10
2022-08-08T09:48:28.952Z,37.30
2022-08-08T09:51:05.147Z,36.70
2022-08-08T09:54:06.774Z,37.20
2022-08-08T09:56:46.554Z,37.30
2022-08-08T09:59:57.071Z,37.30
2022-08-08T10:02:28.751Z,35.30
2022-08-08T10:05:07.021Z,35.40
2022-08-08T10:08:01.246Z,36.10
2022-08-08T10:10:51.336Z,35.00
2022-08-08T10:13:26.195Z,35.00
2022-08-08T10:16:03.499Z,34.80
2022-08-08T10:18:37.391Z,33.80
2022-08-08T10:21:25.714Z,32.70
2022-08-08T10:24:03.165Z,32.00
2022-08-08T10:26:52.176Z,32.80
2022-08-08T10:29:59.824Z,33.00
2022-08-08T10:32:32.576Z,31.40
2022-08-08T10:35:20.389Z,31.30
2022-08-08T10:38:05.327Z,31.20
2022-08-08T10:40:33.246Z,30.20
2022-08-08T10:43:05.508Z,30.00
2022-08-08T10:45:55.701Z,30.40
2022-08-08T10:48:57.431Z,29.80
2022-08-08T10:51:30.830Z,30.40
2022-08-08T10:54:10.438Z,30.40
2022-08-08T10:56:43.062Z,29.10
2022-08-08T10:59:14.182Z,29.90
2022-08-08T11:01:54.316Z,29.90
2022-08-08T11:04:29.257Z,28.80
2022-08-08T11:07:06.801Z,28.20
2022-08-08T11:09:34.359Z,28.10
2022-08-08T11:12:12.457Z,28.00
2022-08-08T11:14:57.139Z,27.90
2022-08-08T11:17:59.384Z,28.00
2022-08-08T11:20:27.732Z,26.80
2022-08-08T11:23:05.781Z,27.80
2022-08-08T11:25:52.304Z,27.90
2022-08-08T11:28:29.801Z,27.30
2022-08-08T11:31:00.855Z,27.40
2022-08-08T11:33:51.143Z,26.90
2022-08-08T11:36:22.060Z,26.50
2022-08-08T11:38:55.557Z,25.70
2022-08-08T11:41:33.507Z,26.40
2022-08-08T11:44:02.254Z,24.90
2022-08-08T11:46:32.849Z,25.20
2022-08-08T11:49:05.180Z,26.40
2022-08-08T11:51:38.564Z,25.80
2022-08-08T11:54:27.043Z,24.90
2022-08-08T11:56:58.010Z,25.70
2022-08-08T12:00:00.709Z,25.60
2022-08-08T12:02:32.227Z,25.10
2022-08-08T12:05:13.473Z,24.00
2022-08-08T12:07:52.023Z,25.10
2022-08-08T12:10:30.402Z,24.30
2022-08-08T12:13:03.964Z,23.20
2022-08-08T12:15:42.532Z,23.90
2022-08-08T12:18:28.703Z,23.70
2022-08-08T12:20:58.861Z,23.90
2022-08-08T12:23:43.862Z,24.40
2022-08-08T12:26:32.135Z,23.10
2022-08-08T12:29:40.141Z,23.60
2022-08-08T12:32:21.010Z,22.80
2022-08-08T12:35:13.009Z,22.40
2022-08-08T12:38:01.553Z,21.70
2022-08-08T12:40:56.459Z,22.10
2022-08-08T12:43:31.835Z,22.40
2022-08-08T12:46:02.959Z,21.50
2022-08-08T12:48:37.980Z,21.60
2022-08-08T12:51:07.782Z,21.90
2022-08-08T12:53:58.626Z,22.00
2022-08-08T12:56:39.753Z,22.20
2022-08-08T12:59:36.345Z,21.60
2022-08-08T13:02:34.626Z,21.40
2022-08-08T13:05:15.678Z,21.70
2022-08-08T13:08:03.898Z,21.30
2022-08-08T13:10:36.631Z,21.90
2022-08-08T13:13:35.487Z,21.40
2022-08-08T13:16:25.724Z,20.50
2022-08-08T13:19:06.560Z,21.50
2022-08-08T13:21:52.993Z,20.60
2022-08-08T13:24:40.702Z,21.30
2022-08-08T13:27:20.597Z,20.70
2022-08-08T13:30:20.919Z,19.90
2022-08-08T13:32:58.846Z,20.70
2022-08-08T13:35:38.636Z,19.00
2022-08-08T13:38:13.152Z,19.10
2022-08-08T13:40:44.826Z,18.80
2022-08-08T13:43:16.947Z,20.20
2022-08-08T13:45:48.533Z,20.20
2022-08-08T13:48:25.272Z,19.30
2022-08-08T13:50:57.641Z,20.40
2022-08-08T13:53:53.198Z,19.90
2022-08-08T13:56:44.895Z,20.00
2022-08-08T13:59:48.181Z,19.90
2022-08-08T14:02:31.278Z,19.80
2022-08-08T14:05:22.365Z,18.80
2022-08-08T14:07:59.617Z,20.00
2022-08-08T14:10:32.930Z,19.90
2022-08-08T14:13:10.093Z,19.60
2022-08-08T14:16:16.145Z,18.50
2022-08-08T14:19:10.601Z,18.80
2022-08-08T14:21:51.917Z,19.00
2022-08-08T14:24:31.570Z,19.70
2022-08-08T14:26:58.640Z,19.40
2022-08-08T14:29:30.027Z,19.10
2022-08-08T14:32:10.601Z,19.00
2022-08-08T14:34:42.180Z,18.80
2022-08-08T14:37:13.283Z,18.90
2022-08-08T14:39:53.860Z,19.10
2022-08-08T14:42:29.833Z,19.70
2022-08-08T14:45:00.595Z,19.10
2022-08-08T14:47:28.249Z,18.90
2022-08-08T14:50:14.214Z,18.80
2022-08-08T14:52:59.687Z,18.60
2022-08-08T14:55:35.321Z,19.00
2022-08-08T14:58:11.592Z,19.50
2022-08-08T15:00:44.265Z,19.40
2022-08-08T15:03:16.047Z,18.90
2022-08-08T15:05:54.006Z,19.20
2022-08-08T15:08:35.385Z,18.60
2022-08-08T15:11:11.613Z,19.00
2022-08-08T15:14:01.731Z,18.70
2022-08-08T15:16:34.782Z,18.70
2022-08-08T15:19:02.825Z,17.90
2022-08-08T15:21:30.592Z,18.40
2022-08-08T15:23:57.967Z,17.80
2022-08-08T15:26:28.744Z,18.70
2022-08-08T15:28:56.645Z,18.30
2022-08-08T15:31:55.633Z,18.60
2022-08-08T15:34:28.868Z,18.60
2022-08-08T15:37:02.307Z,18.90
2022-08-08T15:39:37.715Z,18.90
2022-08-08T15:42:13.347Z,19.40
2022-08-08T15:44:55.241Z,18.20
2022-08-08T15:47:23.948Z,18.00
2022-08-08T15:49:53.177Z,18.60
2022-08-08T15:52:22.086Z,18.50
2022-08-08T15:54:51.594Z,18.70
2022-08-08T15:57:20.694Z,18.70
2022-08-08T16:00:25.522Z,18.20
2022-08-08T16:02:41.219Z,19.20
2022-08-08T16:05:17.275Z,19.00
2022-08-08T16:07:53.018Z,17.50
2022-08-08T16:13:12.126Z,17.40
2022-08-08T16:13:33.554Z,17.40
2022-08-08T16:16:16.594Z,16.90
2022-08-08T16:18:57.279Z,17.20
2022-08-08T16:21:31.451Z,16.70
2022-08-08T16:24:00.886Z,15.90
2022-08-08T16:26:33.832Z,16.40
2022-08-08T16:29:08.107Z,17.20
2022-08-08T16:31:40.282Z,17.60
2022-08-08T16:34:08.787Z,17.00
2022-08-08T16:36:36.786Z,17.00
2022-08-08T16:39:09.930Z,16.50
2022-08-08T16:41:53.219Z,16.90
2022-08-08T16:44:28.072Z,17.30
2022-08-08T16:47:31.568Z,16.10
2022-08-08T16:50:15.129Z,16.40
2022-08-08T16:55:03.011Z,16.70
2022-08-08T16:55:54.154Z,16.30
2022-08-08T16:58:20.760Z,17.90
2022-08-08T17:00:48.658Z,18.20
2022-08-08T17:03:24.339Z,17.80
2022-08-08T17:05:53.882Z,18.30
2022-08-08T17:08:23.519Z,17.70
2022-08-08T17:10:57.489Z,18.50
2022-08-08T17:13:40.768Z,19.30
2022-08-08T17:16:15.377Z,19.10
2022-08-08T17:18:42.795Z,19.10
2022-08-08T17:21:13.812Z,19.30
2022-08-08T17:24:00.400Z,19.70
2022-08-08T17:26:29.389Z,20.50
2022-08-08T17:28:57.296Z,21.60
2022-08-08T17:31:45.761Z,23.20
2022-08-08T17:34:36.986Z,23.80
2022-08-08T17:37:06.718Z,24.30
2022-08-08T17:40:04.740Z,24.00
2022-08-08T17:42:24.434Z,24.20
2022-08-08T17:44:52.668Z,24.80
2022-08-08T17:47:27.310Z,25.10
2022-08-08T17:50:00.965Z,25.00
2022-08-08T17:52:34.059Z,25.40
2022-08-08T17:55:05.804Z,26.00
2022-08-08T17:57:37.398Z,26.50
2022-08-08T18:00:13.356Z,26.40
2022-08-08T18:02:52.653Z,26.80
2022-08-08T18:05:48.840Z,27.10
2022-08-08T18:08:24.852Z,27.70
2022-08-08T18:11:15.403Z,28.60
2022-08-08T18:13:47.434Z,29.10
2022-08-08T18:16:17.092Z,29.80
2022-08-08T18:18:56.316Z,29.20
2022-08-08T18:22:00.365Z,29.40
2022-08-08T18:24:19.722Z,30.00
2022-08-08T18:26:53.646Z,30.90
2022-08-08T18:29:41.421Z,32.00
2022-08-08T18:32:09.780Z,32.40
2022-08-08T18:34:40.390Z,32.00
2022-08-08T18:37:10.294Z,33.80
2022-08-08T18:39:57.402Z,34.10
2022-08-08T18:42:24.477Z,35.40
2022-08-08T18:44:55.090Z,35.60
2022-08-08T18:47:25.171Z,35.80
2022-08-08T18:49:58.947Z,36.20
2022-08-08T18:52:30.082Z,35.70
2022-08-08T18:54:59.550Z,36.10
2022-08-08T18:57:32.022Z,35.60
2022-08-08T19:00:15.935Z,36.30
2022-08-08T19:02:55.273Z,36.30
2022-08-08T19:05:30.489Z,37.10
2022-08-08T19:08:29.300Z,37.40
2022-08-08T19:10:59.233Z,37.40
2022-08-08T19:13:53.223Z,38.20
2022-08-08T19:16:20.268Z,39.10
2022-08-08T19:19:00.474Z,40.20
2022-08-08T19:21:33.278Z,39.40
2022-08-08T19:24:05.767Z,39.90
2022-08-08T19:26:37.669Z,39.70
2022-08-08T19:29:06.049Z,39.60
2022-08-08T19:31:35.316Z,39.80
2022-08-08T19:34:29.802Z,40.90
2022-08-08T19:36:58.585Z,41.20
2022-08-08T19:39:34.826Z,43.10
2022-08-08T19:42:02.402Z,43.50
2022-08-08T19:44:45.828Z,44.00
2022-08-08T19:47:14.378Z,44.60
2022-08-08T19:49:43.595Z,44.70
2022-08-08T19:52:34.698Z,44.70
2022-08-08T19:55:11.545Z,45.90
2022-08-08T19:57:43.131Z,45.80
2022-08-08T20:00:29.329Z,45.80
2022-08-08T20:03:00.156Z,46.00
2022-08-08T20:06:12.684Z,46.40
2022-08-08T20:08:38.845Z,46.20
2022-08-08T20:11:01.948Z,46.70
2022-08-08T20:14:31.803Z,47.20
2022-08-08T20:16:19.119Z,47.30
2022-08-08T20:18:52.860Z,47.40
2022-08-08T20:21:22.940Z,47.90
2022-08-08T20:23:57.391Z,48.30
2022-08-08T20:26:27.482Z,48.10
2022-08-08T20:28:57.101Z,48.50
2022-08-08T20:31:24.218Z,49.30
2022-08-08T20:34:29.764Z,49.50
2022-08-08T20:37:03.287Z,50.10
2022-08-08T20:39:39.054Z,50.90
2022-08-08T20:42:09.125Z,51.20
2022-08-08T20:44:37.500Z,51.40
2022-08-08T20:47:22.702Z,51.10
2022-08-08T20:49:54.495Z,51.50
2022-08-08T20:52:24.735Z,51.80
2022-08-08T20:54:52.108Z,52.90
2022-08-08T20:57:20.948Z,52.40
2022-08-08T20:59:48.668Z,52.50
2022-08-08T21:02:25.904Z,53.00
2022-08-08T21:04:57.455Z,53.60
2022-08-08T21:07:47.009Z,53.80
2022-08-08T21:10:16.590Z,54.30
2022-08-08T21:12:44.498Z,55.20
2022-08-08T21:15:16.741Z,55.60
2022-08-08T21:18:01.158Z,55.60
2022-08-08T21:20:34.400Z,56.80
2022-08-08T21:23:02.909Z,57.40
2022-08-08T21:25:36.196Z,57.80
2022-08-08T21:28:09.681Z,58.70
2022-08-08T21:30:42.627Z,58.30
2022-08-08T21:33:12.485Z,58.70
2022-08-08T21:36:17.323Z,59.20
2022-08-08T21:38:27.340Z,59.80
2022-08-08T21:40:56.978Z,60.00
2022-08-08T21:43:33.101Z,61.00
2022-08-08T21:48:06.767Z,61.10
2022-08-08T21:48:54.669Z,61.40
2022-08-08T21:54:18.340Z,61.20
2022-08-08T21:54:52.594Z,61.30
2022-08-08T21:57:08.247Z,62.80
2022-08-08T22:00:02.600Z,62.90
2022-08-08T22:02:24.909Z,63.10
2022-08-08T22:04:53.403Z,65.40
2022-08-08T22:07:25.974Z,66.40
2022-08-08T22:10:02.095Z,68.60
2022-08-08T22:12:29.098Z,68.80
2022-08-08T22:14:56.113Z,68.30
2022-08-08T22:17:24.439Z,68.30
2022-08-08T22:20:11.223Z,69.60
2022-08-08T22:22:38.762Z,70.90
2022-08-08T22:25:17.777Z,71.80
2022-08-08T22:28:03.986Z,71.80
2022-08-08T22:30:39.954Z,73.00
2022-08-08T22:34:05.073Z,73.40
2022-08-08T22:36:05.663Z,73.60
2022-08-08T22:38:48.088Z,74.90
2022-08-08T22:41:21.705Z,75.20
2022-08-08T22:44:01.198Z,76.20
2022-08-08T22:46:33.035Z,75.40
2022-08-08T22:49:00.671Z,76.40
2022-08-08T22:51:29.512Z,77.20
2022-08-08T22:54:30.623Z,78.80
2022-08-08T22:56:58.716Z,78.70
2022-08-08T22:59:26.358Z,78.40
2022-08-08T23:02:12.739Z,78.10
2022-08-08T23:04:56.046Z,79.10
2022-08-08T23:07:25.093Z,78.60
2022-08-08T23:10:12.135Z,80.00
2022-08-08T23:12:47.491Z,79.90
2022-08-08T23:16:37.679Z,80.30
2022-08-08T23:18:02.501Z,80.30
2022-08-08T23:20:31.371Z,81.40
2022-08-08T23:22:58.807Z,81.20
2022-08-08T23:25:26.693Z,81.00
2022-08-08T23:27:54.622Z,80.50
2022-08-08T23:30:22.813Z,79.70
2022-08-08T23:32:50.994Z,79.60
2022-08-08T23:35:18.769Z,80.40
2022-08-08T23:38:02.013Z,81.40
2022-08-08T23:40:31.869Z,81.50
2022-08-08T23:42:58.983Z,81.70
2022-08-08T23:49:05.627Z,81.60
2022-08-08T23:49:08.548Z,82.40
2022-08-08T23:51:12.723Z,82.90
2022-08-08T23:54:05.707Z,83.10
2022-08-08T23:56:40.868Z,83.00
2022-08-08T23:59:17.169Z,83.90
